createdAt,value
2022-11-17T00:01:13.755Z,12.55
2022-11-17T00:07:38.446Z,11.73
2022-11-17T00:13:58.970Z,10.90
2022-11-17T00:20:21.997Z,9.43
2022-11-17T00:27:03.165Z,9.90
2022-11-17T00:40:12.740Z,10.85
2022-11-17T00:46:21.566Z,10.63
2022-11-17T00:52:36.240Z,9.23
2022-11-17T00:58:57.577Z,10.20
2022-11-17T01:05:03.139Z,9.75
2022-11-17T01:11:12.858Z,9.32
2022-11-17T01:17:47.921Z,10.20
2022-11-17T01:24:02.187Z,10.18
2022-11-17T01:30:30.580Z,9.95
2022-11-17T01:37:00.648Z,9.65
2022-11-17T01:43:05.508Z,9.32
2022-11-17T01:49:25.648Z,7.57
2022-11-17T01:56:01.651Z,7.25
2022-11-17T02:02:59.606Z,7.03
2022-11-17T02:09:02.764Z,7.05
2022-11-17T02:15:39.157Z,6.78
2022-11-17T02:22:02.973Z,6.57
2022-11-17T02:28:58.458Z,6.63
2022-11-17T02:35:39.946Z,6.97
2022-11-17T02:42:10.416Z,6.53
2022-11-17T02:48:41.579Z,7.40
2022-11-17T02:55:11.750Z,6.53
2022-11-17T03:02:03.091Z,6.57
2022-11-17T03:08:54.719Z,6.20
2022-11-17T03:21:57.894Z,5.30
2022-11-17T03:28:09.786Z,5.60
2022-11-17T03:34:35.031Z,6.32
2022-11-17T03:40:56.967Z,6.15
2022-11-17T03:47:20.770Z,6.70
2022-11-17T03:53:53.951Z,6.38
2022-11-17T04:00:27.119Z,6.72
2022-11-17T04:07:01.426Z,6.70
2022-11-17T04:14:04.057Z,6.00
2022-11-17T04:20:20.718Z,6.00
2022-11-17T04:26:58.857Z,6.40
2022-11-17T04:33:14.976Z,6.47
2022-11-17T04:39:24.043Z,5.38
2022-11-17T04:45:50.435Z,4.90
2022-11-17T04:52:01.925Z,4.38
2022-11-17T04:58:15.468Z,4.30
2022-11-17T05:11:38.686Z,4.30
2022-11-17T05:17:49.183Z,3.90
2022-11-17T05:24:05.399Z,3.58
2022-11-17T05:30:39.463Z,3.58
2022-11-17T05:36:56.988Z,3.47
2022-11-17T05:43:34.255Z,3.67
2022-11-17T05:49:51.684Z,3.83
2022-11-17T05:56:44.804Z,3.97
2022-11-17T06:03:42.263Z,4.10
2022-11-17T06:10:14.876Z,3.97
2022-11-17T06:22:56.425Z,4.13
2022-11-17T06:29:08.436Z,4.78
2022-11-17T06:35:39.415Z,4.45
2022-11-17T06:41:50.269Z,5.38
2022-11-17T06:48:03.060Z,5.18
2022-11-17T06:54:15.284Z,4.65
2022-11-17T07:00:24.545Z,4.47
2022-11-17T07:06:37.074Z,4.15
2022-11-17T07:12:56.361Z,3.80
2022-11-17T07:19:04.185Z,3.88
2022-11-17T07:25:28.713Z,3.72
2022-11-17T07:31:50.250Z,2.88
2022-11-17T07:38:04.331Z,3.22
2022-11-17T07:44:06.550Z,3.20
2022-11-17T07:50:17.614Z,2.85
2022-11-17T07:56:22.956Z,2.83
2022-11-17T08:03:02.118Z,2.78
2022-11-17T08:09:24.217Z,2.63
2022-11-17T08:22:05.307Z,2.30
2022-11-17T08:28:29.361Z,3.13
2022-11-17T08:34:31.912Z,2.67
2022-11-17T08:40:34.414Z,3.05
2022-11-17T08:46:41.467Z,3.33
2022-11-17T08:52:46.588Z,3.50
2022-11-17T08:58:49.584Z,3.20
2022-11-17T09:04:52.198Z,3.13
2022-11-17T09:10:55.140Z,3.25
2022-11-17T09:17:02.108Z,3.22
2022-11-17T09:23:07.307Z,3.03
2022-11-17T09:29:12.100Z,2.97
2022-11-17T09:35:16.265Z,3.03
2022-11-17T09:41:42.822Z,2.85
2022-11-17T09:48:41.904Z,2.83
2022-11-17T09:55:08.263Z,2.50
2022-11-17T10:01:20.221Z,2.80
2022-11-17T10:07:51.486Z,2.90
2022-11-17T10:14:31.284Z,2.70
2022-11-17T10:20:57.757Z,2.47
2022-11-17T10:33:48.663Z,2.97
2022-11-17T10:40:05.006Z,2.90
2022-11-17T10:46:16.057Z,2.80
2022-11-17T10:52:28.688Z,3.08
2022-11-17T10:59:03.401Z,3.38
2022-11-17T11:05:21.833Z,3.55
2022-11-17T11:11:46.425Z,3.17
2022-11-17T11:18:00.742Z,2.85
2022-11-17T11:24:41.499Z,2.75
2022-11-17T11:31:08.145Z,2.90
2022-11-17T11:37:23.735Z,3.50
2022-11-17T11:44:00.707Z,3.30
2022-11-17T11:50:21.480Z,3.03
2022-11-17T11:56:58.474Z,3.28
2022-11-17T12:03:35.709Z,3.08
2022-11-17T12:10:17.798Z,3.58
2022-11-17T12:16:43.541Z,3.78
2022-11-17T12:23:25.661Z,3.50
2022-11-17T12:30:10.295Z,3.53
2022-11-17T12:36:32.989Z,3.42
2022-11-17T12:43:29.688Z,3.47
2022-11-17T12:50:01.362Z,3.60
2022-11-17T12:56:32.518Z,3.45
2022-11-17T13:03:29.340Z,3.30
2022-11-17T13:10:02.199Z,3.25
2022-11-17T13:16:24.019Z,3.60
2022-11-17T13:23:11.762Z,3.72
2022-11-17T13:29:48.306Z,4.13
2022-11-17T13:36:46.494Z,3.80
2022-11-17T13:43:02.603Z,4.13
2022-11-17T13:49:47.974Z,3.63
2022-11-17T13:56:04.069Z,3.35
2022-11-17T14:02:43.255Z,3.40
2022-11-17T14:09:07.999Z,3.35
2022-11-17T14:15:38.738Z,3.28
2022-11-17T14:22:36.174Z,3.47
2022-11-17T14:29:11.609Z,3.67
2022-11-17T14:35:33.018Z,3.58
2022-11-17T14:41:47.043Z,4.40
2022-11-17T14:48:01.287Z,4.85
2022-11-17T14:54:11.556Z,4.43
2022-11-17T15:00:31.684Z,4.50
2022-11-17T15:06:33.889Z,4.25
2022-11-17T15:12:36.038Z,4.38
2022-11-17T15:18:38.310Z,4.40
2022-11-17T15:24:40.292Z,4.60
2022-11-17T15:30:43.091Z,4.63
2022-11-17T15:36:44.960Z,4.07
2022-11-17T15:42:46.913Z,4.50
2022-11-17T15:48:52.385Z,4.15
2022-11-17T15:54:54.374Z,5.10
2022-11-17T16:01:26.994Z,4.93
2022-11-17T16:07:29.032Z,5.78
2022-11-17T16:13:32.070Z,5.38
2022-11-17T16:19:33.981Z,5.85
2022-11-17T16:25:47.433Z,6.38
2022-11-17T16:31:50.738Z,6.90
2022-11-17T16:37:52.860Z,7.60
2022-11-17T16:43:55.811Z,7.63
2022-11-17T16:49:57.806Z,7.75
2022-11-17T16:56:17.989Z,6.82
2022-11-17T17:02:20.160Z,6.05
2022-11-17T17:08:22.152Z,7.28
2022-11-17T17:14:24.293Z,7.57
2022-11-17T17:20:26.247Z,8.23
2022-11-17T17:26:30.569Z,8.93
2022-11-17T17:32:32.469Z,8.10
2022-11-17T17:38:35.003Z,8.23
2022-11-17T17:44:36.971Z,8.60
2022-11-17T17:50:40.165Z,7.80
2022-11-17T17:56:42.168Z,7.57
2022-11-17T18:02:44.193Z,7.28
2022-11-17T18:08:46.652Z,11.65
2022-11-17T18:14:48.576Z,12.63
2022-11-17T18:21:03.164Z,11.00
2022-11-17T18:27:05.060Z,11.43
2022-11-17T18:33:07.106Z,11.63
2022-11-17T18:39:09.456Z,10.98
2022-11-17T18:45:11.578Z,11.00
2022-11-17T18:51:19.969Z,9.98
2022-11-17T18:57:22.536Z,11.50
2022-11-17T19:03:24.928Z,11.05
2022-11-17T19:09:26.832Z,10.35
2022-11-17T19:15:28.790Z,10.20
2022-11-17T19:21:33.615Z,11.23
2022-11-17T19:27:35.507Z,11.60
2022-11-17T19:33:39.184Z,10.40
2022-11-17T19:39:41.056Z,10.25
2022-11-17T19:45:43.002Z,10.60
2022-11-17T19:51:45.087Z,10.60
2022-11-17T19:57:47.024Z,10.32
2022-11-17T20:03:49.769Z,12.45
2022-11-17T20:09:51.636Z,11.80
2022-11-17T20:15:57.384Z,13.15
2022-11-17T20:21:59.354Z,19.10
2022-11-17T20:28:01.266Z,16.38
2022-11-17T20:34:05.656Z,16.73
2022-11-17T20:40:08.325Z,14.43
2022-11-17T20:46:10.338Z,14.90
2022-11-17T20:52:13.595Z,15.35
2022-11-17T20:58:15.612Z,14.77
2022-11-17T21:04:17.555Z,15.10
2022-11-17T21:10:19.536Z,16.40
2022-11-17T21:16:21.476Z,16.83
2022-11-17T21:22:23.400Z,15.15
2022-11-17T21:28:25.331Z,17.50
2022-11-17T21:34:27.199Z,15.60
2022-11-17T21:40:29.195Z,17.90
2022-11-17T21:46:33.372Z,17.92
2022-11-17T21:52:35.448Z,18.15
2022-11-17T21:58:37.404Z,18.05
2022-11-17T22:04:39.349Z,17.77
2022-11-17T22:10:41.366Z,17.17
2022-11-17T22:16:48.604Z,16.48
2022-11-17T22:22:54.101Z,17.75
2022-11-17T22:28:56.421Z,17.95
2022-11-17T22:35:01.496Z,16.90
2022-11-17T22:41:05.550Z,17.17
2022-11-17T22:47:07.464Z,16.05
2022-11-17T22:53:09.328Z,18.60
2022-11-17T22:59:11.208Z,18.85
2022-11-17T23:05:13.116Z,16.13
2022-11-17T23:11:36.120Z,16.58
2022-11-17T23:17:37.325Z,19.17
2022-11-17T23:23:40.482Z,21.35
2022-11-17T23:29:42.416Z,18.88
2022-11-17T23:35:44.287Z,18.17
2022-11-17T23:41:46.150Z,20.30
2022-11-17T23:47:48.097Z,19.60
2022-11-17T23:53:50.243Z,17.70
2022-11-17T23:59:52.226Z,18.95
